Hauptseite
METAR-TAF:

METAR-TAF

Flughäfen :

Flughafen Heringsdorf

Heringsdorf, Deutschland

Breite: 53-53N, Länge: 014-09E, Höhe: 28 m

Beobachtung

Neuester Wetterbericht von vor 16 Stunden und 46 Minuten, um 13:20 UTC
Wind 7 kt aus West/Südwest
Temperatur 4°C
Luftfeuchtigkeit 93%
Luftdruck 1033 hPa
Sichtweite 10 km oder mehr
Durchbrochene Bewölkung in der Höhe von 900 ft

METAR: EDAH 191320Z 25007KT 9999 BKN009 04/03 Q1033

Zeit: 07:06 (06:06 UTC)

Prognose

Neuester Wetterbericht von vor 19 Stunden und 6 Minuten, um 11:00 UTC
Gültige Prognose vom 19 um 12 UTC bis 19 um 21 UTC
Wind 6 kt aus West/Südwest
Sichtweite 10 km oder mehr
Leicht bewölkt in der Höhe von 4000 ft
Zeitweise
vom 19 um 12 UTC bis 19 um 16 UTC
Durchbrochene Bewölkung in der Höhe von 1200 ft

TAF: EDAH 191100Z 1912/1921 25006KT 9999 FEW040 TEMPO 1912/1916 BKN012

Wetterbeobachtungen und Prognosen von mehr als 4000 Flughäfen (METAR und TAF Bericht).

Die verfügbaren Stationen werden durch gelbe und rote Markierungen auf der Karte dargestellt.

Führen Sie die Maus auf sie, um den Namen der Station zu sehen.

Darauf klicken, um die Beobachtung von Wetterbeobachtungen und Prognosen zu sehen.

Um die Karte zu ändern : klicken Sie auf den grünen Tasten mit einem schwarzen Kreuz Zum Vergrößern, auf den grünen Button mit einem Gedankenstrich zu verkleinern, oder auf die grünen Pfeile für benachbarte Karten.


METAR-TAF: